• Join FlightAware (Why Join?)
  • Login
  • US Flag 
09:22PM EDT


 

Airport Tracker/Info


-or-


 

Live Flight TrackerFlight Track Log ✈ ASQ4252 ✈ 04-Jun-2013 ✈ KEWR - KMKE

Flight Track Log - Related Links

Times and Time Zones

All times are in EDT time to prevent confusion due to time zone crossing. See the ASQ4252 flight status page for this flight to view local times or setup timezone preferences in your user account.

Time Position Orientation Groundspeed Altitude Reporting Facility
EDT Latitude Longitude Course Direction KTS MPH feet Rate Location/Type
06:20AM 40.7333 -74.1333 316° Northwest 199 229 1,600  Level New York TRACON
06:20AM 40.7667 -74.1500 339° North 237 273 3,900 1,740 Climbing New York TRACON
06:22AM 40.8914 -74.4092 319° Northwest  Level FlightAware Approximate
06:22AM 40.8000 -74.2500 294° West 253 291 5,100  Level New York TRACON
06:22AM 40.8500 -74.2833 333° Northwest 248 285 6,000 1,980 Climbing New York TRACON
06:23AM 40.9622 -74.4900 319° Northwest  Level FlightAware Approximate
06:24AM 41.0312 -74.5733 316° Northwest  Level FlightAware Approximate
06:24AM 40.9253 -74.3797 316° Northwest 259 298 9,900  Level New York Center
06:25AM 41.0982 -74.6596 316° Northwest  Level FlightAware Approximate
06:25AM 40.9925 -74.4244 333° Northwest 243 280 12,100  Level New York Center
06:26AM 41.0608 -74.3706 31° Northeast 248 285 12,000 180 Descending New York Center
06:27AM 41.1450 -74.3475 12° North 281 323 12,500 600 Climbing New York Center
06:28AM 41.1608 -74.4364 283° West 221 254 13,300 1,260 Climbing New York Center
06:29AM 41.1483 -74.5708 263° West 273 314 15,100 1,740 Climbing New York Center
06:30AM 41.1425 -74.6861 266° West 337 388 16,800 1,800 Climbing New York Center
06:31AM 41.1864 -74.8100 295° West 343 395 18,800 1,980 Climbing New York Center
06:32AM 41.2325 -74.9203 299° West 337 388 20,800 1,800 Climbing New York Center
06:33AM 41.2806 -75.0281 301° West 337 388 22,400 1,440 Climbing New York Center
06:34AM 41.3267 -75.1361 300° West 343 395 23,800 1,140 Climbing New York Center
06:35AM 41.3747 -75.2469 300° West 343 395 24,800 1,020 Climbing New York Center
06:36AM 41.4225 -75.3553 300° West 343 395 25,900 1,020 Climbing New York Center
06:37AM 41.4681 -75.4692 298° West 343 395 26,900 1,020 Climbing New York Center
06:38AM 41.5050 -75.5853 293° West 343 395 28,000 1,140 Climbing New York Center
06:39AM 41.5397 -75.7042 291° West 343 395 29,300 1,380 Climbing New York Center
06:40AM 41.5744 -75.8206 292° West 343 395 30,800 1,440 Climbing New York Center
06:41AM 41.6069 -75.9367 291° West 338 389 32,200 1,080 Climbing New York Center
06:42AM 41.6392 -76.0558 290° West 338 389 33,000 660 Climbing New York Center
06:43AM 41.6733 -76.1778 291° West 344 396 33,600 480 Climbing New York Center
06:44AM 41.7111 -76.3058 292° West 358 412 34,000 180 Climbing New York Center
06:45AM 41.7467 -76.4367 290° West 364 419 34,000  Level New York Center
06:46AM 41.7783 -76.5564 290° West 375 432 34,000  Level New York Center
06:47AM 41.8219 -76.7153 290° West 375 432 34,000  Level Cleveland Center
06:48AM 41.8597 -76.8469 291° West 375 432 34,000  Level Cleveland Center
06:49AM 41.8950 -76.9789 290° West 381 438 34,000  Level Cleveland Center
06:50AM 41.9306 -77.1164 289° West 381 438 34,000 840 Level Cleveland Center
06:51AM 41.9656 -77.2431 290° West 375 432 35,700 960 Climbing Cleveland Center
06:52AM 41.9983 -77.3642 290° West 363 418 36,000 120 Climbing Cleveland Center
06:53AM 42.0331 -77.4911 290° West 358 412 36,000  Level Cleveland Center
06:54AM 42.0678 -77.6208 290° West 363 418 36,000  Level Cleveland Center
06:55AM 42.1003 -77.7511 289° West 363 418 36,000  Level Cleveland Center
06:56AM 42.1347 -77.8811 290° West 363 418 36,000  Level Cleveland Center
06:57AM 42.1711 -78.0114 291° West 363 418 36,000  Level Cleveland Center
06:58AM 42.2050 -78.1389 290° West 363 418 36,000  Level Cleveland Center
06:59AM 42.2369 -78.2667 289° West 363 418 36,000  Level Cleveland Center
07:00AM 42.2728 -78.3972 290° West 363 418 36,000  Level Cleveland Center
07:01AM 42.3064 -78.5281 289° West 363 418 36,000  Level Cleveland Center
07:02AM 42.3381 -78.6619 288° West 363 418 36,000  Level Cleveland Center
07:03AM 42.3714 -78.7900 289° West 363 418 36,000  Level Cleveland Center
07:04AM 42.4044 -78.9242 288° West 363 418 36,000  Level Cleveland Center
07:05AM 42.4356 -79.0556 288° West 363 418 36,000  Level Cleveland Center
07:06AM 42.4725 -79.1869 291° West 363 418 36,000  Level Cleveland Center
07:07AM 42.4950 -79.3244 283° West 363 418 36,000  Level Cleveland Center
07:08AM 42.5006 -79.4653 273° West 373 429 36,000  Level Cleveland Center
07:09AM 42.5083 -79.6086 274° West 373 429 36,000  Level Cleveland Center
07:10AM 42.5178 -79.7522 275° West 378 435 36,000  Level Cleveland Center
07:11AM 42.5250 -79.8958 274° West 388 447 36,000  Level Cleveland Center
07:12AM 42.5256 -80.0422 270° West 388 447 36,000  Level Cleveland Center
07:13AM 42.5303 -80.1831 273° West 383 441 36,000  Level Cleveland Center
07:14AM 42.5392 -80.3128 275° West 383 441 36,000  Level Cleveland Center
07:15AM 42.5478 -80.4619 275° West 388 447 36,000  Level Cleveland Center
07:16AM 42.5519 -80.6058 272° West 388 447 36,000  Level Cleveland Center
07:17AM 42.5558 -80.7494 272° West 387 445 36,000  Level Cleveland Center
07:18AM 42.5619 -80.8961 273° West 389 448 36,000  Level Cleveland Center
07:19AM 42.5678 -81.0400 273° West 389 448 36,000  Level Cleveland Center
07:20AM 42.5733 -81.1836 273° West 382 440 36,000  Level Cleveland Center
07:21AM 42.5767 -81.3303 272° West 387 445 36,000  Level Cleveland Center
07:22AM 42.5881 -81.4828 276° West 387 445 36,000  Level Cleveland Center
07:23AM 42.6139 -81.6269 284° West 387 445 36,000  Level Cleveland Center
07:24AM 42.6375 -81.7628 283° West 387 445 36,000  Level Cleveland Center
07:25AM 42.6592 -81.8875 283° West 380 437 36,000  Level Cleveland Center
07:26AM 42.6844 -82.0264 284° West 380 437 36,000  Level Cleveland Center
07:27AM 42.7078 -82.1656 283° West 375 432 36,000  Level Cleveland Center
07:28AM 42.7328 -82.3075 284° West 375 432 36,000  Level Cleveland Center
07:29AM 42.7556 -82.4467 283° West 375 432 36,000  Level Cleveland Center
07:30AM 42.7783 -82.5858 283° West 375 432 36,000  Level Cleveland Center
07:31AM 42.8008 -82.7281 282° West 375 432 36,000  Level Cleveland Center
07:32AM 42.8250 -82.8706 283° West 375 432 36,000  Level Cleveland Center
07:33AM 42.8494 -83.0131 283° West 380 437 36,000  Level Cleveland Center
07:34AM 42.8733 -83.1556 283° West 380 437 36,000  Level Cleveland Center
07:35AM 42.8950 -83.3011 282° West 385 443 36,000  Level Cleveland Center
07:36AM 42.9186 -83.4439 283° West 391 450 36,000  Level Cleveland Center
07:37AM 42.9400 -83.5867 282° West 391 450 36,000  Level Cleveland Center
07:38AM 42.9633 -83.7325 282° West 391 450 36,000  Level Cleveland Center
07:39AM 42.9781 -83.8781 278° West 396 456 36,000  Level Cleveland Center
07:40AM 42.9903 -84.0292 276° West 396 456 36,000  Level Cleveland Center
07:41AM 43.0067 -84.1750 279° West 396 456 36,000  Level Cleveland Center
07:41AM 43.0136 -84.2356 279° West 396 456 36,000  Level Chicago Center
07:42AM 43.0281 -84.3847 278° West 397 457 36,000  Level Chicago Center
07:43AM 43.0419 -84.5339 277° West 396 456 36,000  Level Chicago Center
07:45AM 43.0550 -84.6833 277° West 398 458 36,000  Level Chicago Center
07:46AM 43.0692 -84.8342 277° West 400 460 36,000  Level Chicago Center
07:47AM 43.0817 -84.9844 277° West 400 460 36,000 -480 Level Chicago Center
07:48AM 43.0975 -85.1633 277° West 396 456 35,100 -1,260 Descending Chicago Center
07:49AM 43.1103 -85.3136 277° West 398 458 33,500 -1,560 Descending Chicago Center
07:50AM 43.1231 -85.4661 277° West 405 466 32,000 -1,680 Descending Chicago Center
07:51AM 43.1361 -85.6228 277° West 414 476 30,100 -1,860 Descending Chicago Center
07:52AM 43.1492 -85.7806 277° West 419 482 28,200 -2,040 Descending Chicago Center
07:53AM 43.1647 -85.9742 276° West 436 502 26,000 -1,800 Descending Chicago Center
07:54AM 43.1714 -86.1342 273° West 436 502 24,600 -1,200 Descending Chicago Center
07:55AM 43.1667 -86.2867 268° West 414 476 23,600 -1,440 Descending Chicago Center
07:56AM 43.1639 -86.4317 269° West 384 442 21,700 -1,980 Descending Chicago Center
07:57AM 43.1617 -86.5639 269° West 352 405 19,600 -1,920 Descending Chicago Center
07:58AM 43.1592 -86.6964 269° West 351 404 17,800 -2,100 Descending Chicago Center
07:59AM 43.1558 -86.8622 268° West 363 418 15,400 -1,860 Descending Chicago Center
08:00AM 43.1533 -86.9972 269° West 357 411 14,000 -1,260 Descending Chicago Center
08:01AM 43.1511 -87.1289 269° West 346 398 12,800 -1,260 Descending Chicago Center
08:02AM 43.1486 -87.2406 268° West 298 343 11,400 -1,320 Descending Chicago Center
08:03AM 43.1439 -87.3425 266° West 272 313 10,100 -1,320 Descending Chicago Center
08:04AM 43.1258 -87.4564 258° West 277 319 8,700 -1,380 Descending Chicago Center
08:05AM 43.1108 -87.5617 259° West 280 322 7,300 -1,320 Descending Chicago Center
08:06AM 43.0942 -87.6642 257° West 278 320 6,000 -1,320 Descending Chicago Center
08:07AM 43.0797 -87.7583 258° West 260 299 4,600 -1,380 Descending Chicago Center